sensor_id;sensor_type;location;lat;lon;timestamp;pressure;altitude;pressure_sealevel;temperature;humidity
73240;BME280;61452;40.054;4.110;2024-03-22T00:04:16;102263.25;;;17.03;100.00
73240;BME280;61452;40.054;4.110;2024-03-22T00:09:17;102273.84;;;17.03;100.00
73240;BME280;61452;40.054;4.110;2024-03-22T00:14:18;102277.25;;;17.05;100.00
73240;BME280;61452;40.054;4.110;2024-03-22T00:19:19;102286.06;;;17.06;100.00
73240;BME280;61452;40.054;4.110;2024-03-22T00:24:20;102277.25;;;17.05;100.00
73240;BME280;61452;40.054;4.110;2024-03-22T00:29:21;102275.63;;;17.03;100.00
73240;BME280;61452;40.054;4.110;2024-03-22T00:34:22;102278.28;;;17.03;100.00
73240;BME280;61452;40.054;4.110;2024-03-22T00:39:23;102275.53;;;17.04;100.00
73240;BME280;61452;40.054;4.110;2024-03-22T00:44:24;102263.16;;;17.05;100.00
73240;BME280;61452;40.054;4.110;2024-03-22T00:49:25;102271.09;;;17.05;100.00
73240;BME280;61452;40.054;4.110;2024-03-22T00:54:26;102252.72;;;17.02;100.00
73240;BME280;61452;40.054;4.110;2024-03-22T00:59:27;102242.13;;;17.02;100.00
73240;BME280;61452;40.054;4.110;2024-03-22T01:04:29;102229.63;;;17.04;100.00
73240;BME280;61452;40.054;4.110;2024-03-22T01:09:30;102227.94;;;17.03;100.00
73240;BME280;61452;40.054;4.110;2024-03-22T01:14:31;102235.78;;;17.04;100.00
73240;BME280;61452;40.054;4.110;2024-03-22T01:19:33;102228.94;;;17.00;100.00
73240;BME280;61452;40.054;4.110;2024-03-22T01:24:34;102229.78;;;17.01;100.00
73240;BME280;61452;40.054;4.110;2024-03-22T01:29:35;102225.41;;;16.99;100.00
73240;BME280;61452;40.054;4.110;2024-03-22T01:34:36;102214.03;;;16.97;100.00
73240;BME280;61452;40.054;4.110;2024-03-22T01:39:38;102218.41;;;16.98;100.00
73240;BME280;61452;40.054;4.110;2024-03-22T01:44:39;102212.09;;;17.01;100.00
73240;BME280;61452;40.054;4.110;2024-03-22T01:49:40;102219.13;;;17.02;100.00
73240;BME280;61452;40.054;4.110;2024-03-22T01:54:41;102204.22;;;16.99;100.00
73240;BME280;61452;40.054;4.110;2024-03-22T01:59:43;102203.34;;;16.99;100.00
73240;BME280;61452;40.054;4.110;2024-03-22T02:04:45;102205.06;;;17.00;100.00
73240;BME280;61452;40.054;4.110;2024-03-22T02:09:46;102200.69;;;16.99;100.00
73240;BME280;61452;40.054;4.110;2024-03-22T02:14:47;102198.06;;;16.99;100.00
73240;BME280;61452;40.054;4.110;2024-03-22T02:19:48;102195.41;;;16.99;100.00
73240;BME280;61452;40.054;4.110;2024-03-22T02:24:49;102191.88;;;16.98;100.00
73240;BME280;61452;40.054;4.110;2024-03-22T02:29:51;102180.44;;;16.98;100.00
73240;BME280;61452;40.054;4.110;2024-03-22T02:34:52;102180.28;;;17.01;100.00
73240;BME280;61452;40.054;4.110;2024-03-22T02:39:53;102173.25;;;17.00;100.00
73240;BME280;61452;40.054;4.110;2024-03-22T02:44:54;102172.41;;;16.99;100.00
73240;BME280;61452;40.054;4.110;2024-03-22T02:49:55;102169.81;;;16.98;100.00
73240;BME280;61452;40.054;4.110;2024-03-22T02:54:56;102166.25;;;16.99;100.00
73240;BME280;61452;40.054;4.110;2024-03-22T03:00:00;102147.69;;;16.99;100.00
73240;BME280;61452;40.054;4.110;2024-03-22T03:05:01;102142.38;;;16.99;100.00
73240;BME280;61452;40.054;4.110;2024-03-22T03:10:03;102135.47;;;16.96;100.00
73240;BME280;61452;40.054;4.110;2024-03-22T03:15:04;102137.34;;;16.94;100.00
73240;BME280;61452;40.054;4.110;2024-03-22T03:20:06;102135.47;;;16.96;100.00
73240;BME280;61452;40.054;4.110;2024-03-22T03:25:14;102129.31;;;16.96;100.00
73240;BME280;61452;40.054;4.110;2024-03-22T03:30:15;102131.09;;;16.95;100.00
73240;BME280;61452;40.054;4.110;2024-03-22T03:35:16;102134.63;;;16.96;100.00
73240;BME280;61452;40.054;4.110;2024-03-22T03:40:17;102142.47;;;16.97;100.00
73240;BME280;61452;40.054;4.110;2024-03-22T03:45:18;102140.78;;;16.96;100.00
73240;BME280;61452;40.054;4.110;2024-03-22T03:50:19;102147.00;;;16.95;100.00
73240;BME280;61452;40.054;4.110;2024-03-22T03:55:21;102148.81;;;16.95;100.00
73240;BME280;61452;40.054;4.110;2024-03-22T04:00:22;102147.09;;;16.94;100.00
73240;BME280;61452;40.054;4.110;2024-03-22T04:05:23;102146.22;;;16.93;100.00
73240;BME280;61452;40.054;4.110;2024-03-22T04:10:24;102150.66;;;16.93;100.00
73240;BME280;61452;40.054;4.110;2024-03-22T04:15:25;102143.56;;;16.93;100.00
73240;BME280;61452;40.054;4.110;2024-03-22T04:20:26;102136.56;;;16.92;100.00
73240;BME280;61452;40.054;4.110;2024-03-22T04:25:27;102141.00;;;16.92;100.00
73240;BME280;61452;40.054;4.110;2024-03-22T04:30:29;102141.84;;;16.92;100.00
73240;BME280;61452;40.054;4.110;2024-03-22T04:35:30;102128.72;;;16.91;100.00
73240;BME280;61452;40.054;4.110;2024-03-22T04:40:31;102146.16;;;16.95;100.00
73240;BME280;61452;40.054;4.110;2024-03-22T04:45:32;102154.19;;;16.93;100.00
73240;BME280;61452;40.054;4.110;2024-03-22T04:50:33;102150.75;;;16.91;100.00
73240;BME280;61452;40.054;4.110;2024-03-22T04:55:34;102148.09;;;16.91;100.00
73240;BME280;61452;40.054;4.110;2024-03-22T05:00:35;102155.03;;;16.94;100.00
73240;BME280;61452;40.054;4.110;2024-03-22T05:05:38;102154.97;;;16.95;100.00
73240;BME280;61452;40.054;4.110;2024-03-22T05:10:39;102158.53;;;16.94;100.00
73240;BME280;61452;40.054;4.110;2024-03-22T05:15:40;102152.47;;;16.92;100.00
73240;BME280;61452;40.054;4.110;2024-03-22T05:20:41;102157.75;;;16.92;100.00
73240;BME280;61452;40.054;4.110;2024-03-22T05:25:42;102146.22;;;16.93;100.00
73240;BME280;61452;40.054;4.110;2024-03-22T05:30:43;102159.47;;;16.93;100.00
73240;BME280;61452;40.054;4.110;2024-03-22T05:35:44;102161.28;;;16.93;100.00
73240;BME280;61452;40.054;4.110;2024-03-22T05:40:45;102170.94;;;16.94;100.00
73240;BME280;61452;40.054;4.110;2024-03-22T05:45:48;102161.44;;;16.90;100.00
73240;BME280;61452;40.054;4.110;2024-03-22T05:50:49;102156.16;;;16.90;100.00
73240;BME280;61452;40.054;4.110;2024-03-22T05:55:50;102156.16;;;16.90;100.00
73240;BME280;61452;40.054;4.110;2024-03-22T06:00:51;102160.53;;;16.91;100.00
73240;BME280;61452;40.054;4.110;2024-03-22T06:05:54;102157.88;;;16.91;100.00
73240;BME280;61452;40.054;4.110;2024-03-22T06:10:57;102157.06;;;16.89;100.00
73240;BME280;61452;40.054;4.110;2024-03-22T06:15:58;102164.09;;;16.90;100.00
73240;BME280;61452;40.054;4.110;2024-03-22T06:20:59;102158.88;;;16.88;100.00
73240;BME280;61452;40.054;4.110;2024-03-22T06:26:00;102157.00;;;16.90;100.00
73240;BME280;61452;40.054;4.110;2024-03-22T06:31:01;102156.91;;;16.92;100.00
73240;BME280;61452;40.054;4.110;2024-03-22T06:36:04;102149.91;;;16.91;100.00
73240;BME280;61452;40.054;4.110;2024-03-22T06:41:05;102151.84;;;16.87;100.00
73240;BME280;61452;40.054;4.110;2024-03-22T06:46:06;102140.41;;;16.87;100.00
73240;BME280;61452;40.054;4.110;2024-03-22T06:51:07;102150.84;;;16.90;100.00
73240;BME280;61452;40.054;4.110;2024-03-22T06:56:08;102150.91;;;16.88;100.00
73240;BME280;61452;40.054;4.110;2024-03-22T07:01:09;102149.91;;;16.91;100.00
73240;BME280;61452;40.054;4.110;2024-03-22T07:06:11;102150.00;;;16.89;100.00
73240;BME280;61452;40.054;4.110;2024-03-22T07:11:12;102162.31;;;16.90;100.00
73240;BME280;61452;40.054;4.110;2024-03-22T07:16:13;102144.75;;;16.88;100.00
73240;BME280;61452;40.054;4.110;2024-03-22T07:21:14;102151.84;;;16.87;100.00
73240;BME280;61452;40.054;4.110;2024-03-22T07:26:15;102151.78;;;16.89;100.00
73240;BME280;61452;40.054;4.110;2024-03-22T07:31:16;102150.84;;;16.90;100.00
73240;BME280;61452;40.054;4.110;2024-03-22T07:36:17;102146.47;;;16.89;100.00
73240;BME280;61452;40.054;4.110;2024-03-22T07:41:18;102153.56;;;16.88;100.00
73240;BME280;61452;40.054;4.110;2024-03-22T07:46:19;102160.72;;;16.86;100.00
73240;BME280;61452;40.054;4.110;2024-03-22T07:51:20;102161.59;;;16.87;100.00
73240;BME280;61452;40.054;4.110;2024-03-22T07:56:21;102158.00;;;16.88;100.00
73240;BME280;61452;40.054;4.110;2024-03-22T08:01:23;102157.16;;;16.87;100.00
73240;BME280;61452;40.054;4.110;2024-03-22T08:06:24;102169.41;;;16.90;100.00
73240;BME280;61452;40.054;4.110;2024-03-22T08:11:27;102164.16;;;16.88;100.00
73240;BME280;61452;40.054;4.110;2024-03-22T08:16:29;102173.84;;;16.89;100.00
73240;BME280;61452;40.054;4.110;2024-03-22T08:21:30;102170.66;;;16.83;100.00
73240;BME280;61452;40.054;4.110;2024-03-22T08:26:31;102177.41;;;16.88;100.00
73240;BME280;61452;40.054;4.110;2024-03-22T08:31:32;102175.72;;;16.87;100.00
73240;BME280;61452;40.054;4.110;2024-03-22T08:36:34;102173.91;;;16.88;100.00
73240;BME280;61452;40.054;4.110;2024-03-22T08:41:35;102180.06;;;16.88;100.00
73240;BME280;61452;40.054;4.110;2024-03-22T08:46:36;102181.88;;;16.88;100.00
73240;BME280;61452;40.054;4.110;2024-03-22T08:51:37;102180.88;;;16.90;100.00
73240;BME280;61452;40.054;4.110;2024-03-22T08:56:38;102180.00;;;16.90;100.00
73240;BME280;61452;40.054;4.110;2024-03-22T09:01:39;102177.34;;;16.90;100.00
73240;BME280;61452;40.054;4.110;2024-03-22T09:06:41;102181.00;;;16.87;100.00
73240;BME280;61452;40.054;4.110;2024-03-22T09:11:42;102185.38;;;16.88;100.00
73240;BME280;61452;40.054;4.110;2024-03-22T09:16:43;102189.75;;;16.89;100.00
73240;BME280;61452;40.054;4.110;2024-03-22T09:21:44;102191.53;;;16.89;100.00
73240;BME280;61452;40.054;4.110;2024-03-22T09:26:45;102188.88;;;16.89;100.00
73240;BME280;61452;40.054;4.110;2024-03-22T09:31:46;102187.09;;;16.89;100.00
73240;BME280;61452;40.054;4.110;2024-03-22T09:36:47;102181.00;;;16.87;100.00
73240;BME280;61452;40.054;4.110;2024-03-22T09:41:50;102182.72;;;16.88;100.00
73240;BME280;61452;40.054;4.110;2024-03-22T09:46:52;102182.66;;;16.90;100.00
73240;BME280;61452;40.054;4.110;2024-03-22T09:51:54;102175.56;;;16.90;100.00
73240;BME280;61452;40.054;4.110;2024-03-22T09:56:56;102170.25;;;16.90;100.00
73240;BME280;61452;40.054;4.110;2024-03-22T10:01:58;102172.06;;;16.90;100.00
73240;BME280;61452;40.054;4.110;2024-03-22T10:07:00;102165.03;;;16.89;100.00
73240;BME280;61452;40.054;4.110;2024-03-22T10:12:03;102170.16;;;16.92;100.00
73240;BME280;61452;40.054;4.110;2024-03-22T10:17:04;102160.41;;;16.92;100.00
73240;BME280;61452;40.054;4.110;2024-03-22T10:22:05;102160.41;;;16.92;100.00
73240;BME280;61452;40.054;4.110;2024-03-22T10:27:06;102153.38;;;16.91;100.00
73240;BME280;61452;40.054;4.110;2024-03-22T10:32:08;102155.22;;;16.91;100.00
73240;BME280;61452;40.054;4.110;2024-03-22T10:37:14;102150.66;;;16.93;100.00
73240;BME280;61452;40.054;4.110;2024-03-22T10:42:16;102163.16;;;16.91;100.00
73240;BME280;61452;40.054;4.110;2024-03-22T10:47:18;102155.97;;;16.93;100.00
73240;BME280;61452;40.054;4.110;2024-03-22T10:52:21;102155.09;;;16.92;100.00
73240;BME280;61452;40.054;4.110;2024-03-22T10:57:22;102144.50;;;16.92;100.00
73240;BME280;61452;40.054;4.110;2024-03-22T11:02:24;102140.00;;;16.94;100.00
73240;BME280;61452;40.054;4.110;2024-03-22T11:07:29;102140.06;;;16.93;100.00
73240;BME280;61452;40.054;4.110;2024-03-22T11:12:31;102139.13;;;16.94;100.00
73240;BME280;61452;40.054;4.110;2024-03-22T11:17:34;102130.31;;;16.93;100.00
73240;BME280;61452;40.054;4.110;2024-03-22T11:22:35;102135.56;;;16.95;100.00
73240;BME280;61452;40.054;4.110;2024-03-22T11:27:38;102122.22;;;16.96;100.00
73240;BME280;61452;40.054;4.110;2024-03-22T11:32:40;102126.47;;;16.99;100.00
73240;BME280;61452;40.054;4.110;2024-03-22T11:37:47;102127.41;;;16.98;100.00
73240;BME280;61452;40.054;4.110;2024-03-22T11:42:50;102124.88;;;16.96;100.00
73240;BME280;61452;40.054;4.110;2024-03-22T11:47:52;102115.88;;;16.99;100.00
73240;BME280;61452;40.054;4.110;2024-03-22T11:52:54;102117.78;;;16.97;100.00
73240;BME280;61452;40.054;4.110;2024-03-22T11:57:57;102112.38;;;16.98;100.00
73240;BME280;61452;40.054;4.110;2024-03-22T12:03:00;102109.56;;;17.02;100.00
73240;BME280;61452;40.054;4.110;2024-03-22T12:08:01;102114.88;;;17.02;100.00
73240;BME280;61452;40.054;4.110;2024-03-22T12:13:03;102100.56;;;17.04;100.00
73240;BME280;61452;40.054;4.110;2024-03-22T12:18:04;102090.94;;;17.03;100.00
73240;BME280;61452;40.054;4.110;2024-03-22T12:23:05;102089.22;;;17.02;100.00
73240;BME280;61452;40.054;4.110;2024-03-22T12:28:06;102079.47;;;17.03;100.00
73240;BME280;61452;40.054;4.110;2024-03-22T12:33:08;102078.69;;;17.01;100.00
73240;BME280;61452;40.054;4.110;2024-03-22T12:38:11;102068.88;;;17.03;100.00
73240;BME280;61452;40.054;4.110;2024-03-22T12:43:14;102064.31;;;17.05;100.00
73240;BME280;61452;40.054;4.110;2024-03-22T12:48:15;102065.97;;;17.07;100.00
73240;BME280;61452;40.054;4.110;2024-03-22T12:53:16;102064.25;;;17.06;100.00
73240;BME280;61452;40.054;4.110;2024-03-22T12:58:17;102064.31;;;17.05;100.00
73240;BME280;61452;40.054;4.110;2024-03-22T13:03:18;102056.38;;;17.05;100.00
73240;BME280;61452;40.054;4.110;2024-03-22T13:08:19;102052.78;;;17.06;100.00
73240;BME280;61452;40.054;4.110;2024-03-22T13:13:20;102049.28;;;17.05;100.00
73240;BME280;61452;40.054;4.110;2024-03-22T13:18:21;102044.84;;;17.06;100.00
73240;BME280;61452;40.054;4.110;2024-03-22T13:23:23;102044.69;;;17.09;100.00
73240;BME280;61452;40.054;4.110;2024-03-22T13:28:24;102036.81;;;17.07;100.00
73240;BME280;61452;40.054;4.110;2024-03-22T13:33:25;102030.66;;;17.07;100.00
73240;BME280;61452;40.054;4.110;2024-03-22T13:38:27;102027.22;;;17.05;100.00
73240;BME280;61452;40.054;4.110;2024-03-22T13:43:29;102028.94;;;17.06;100.00
73240;BME280;61452;40.054;4.110;2024-03-22T13:48:30;102025.41;;;17.05;100.00
73240;BME280;61452;40.054;4.110;2024-03-22T13:53:31;102017.31;;;17.08;100.00
73240;BME280;61452;40.054;4.110;2024-03-22T13:58:32;102010.09;;;17.10;100.00
73240;BME280;61452;40.054;4.110;2024-03-22T14:03:33;102008.31;;;17.11;100.00
73240;BME280;61452;40.054;4.110;2024-03-22T14:08:34;102001.28;;;17.10;100.00
73240;BME280;61452;40.054;4.110;2024-03-22T14:13:35;102002.25;;;17.09;100.00
73240;BME280;61452;40.054;4.110;2024-03-22T14:18:37;101993.44;;;17.08;100.00
73240;BME280;61452;40.054;4.110;2024-03-22T14:23:38;101992.59;;;17.08;100.00
73240;BME280;61452;40.054;4.110;2024-03-22T14:28:40;101985.38;;;17.10;100.00
73240;BME280;61452;40.054;4.110;2024-03-22T14:33:41;101980.88;;;17.12;100.00
73240;BME280;61452;40.054;4.110;2024-03-22T14:38:42;101982.66;;;17.11;100.00
73240;BME280;61452;40.054;4.110;2024-03-22T14:43:43;101976.50;;;17.11;100.00
73240;BME280;61452;40.054;4.110;2024-03-22T14:48:44;101965.81;;;17.12;100.00
73240;BME280;61452;40.054;4.110;2024-03-22T14:53:45;101967.59;;;17.12;100.00
73240;BME280;61452;40.054;4.110;2024-03-22T14:58:46;101967.59;;;17.12;100.00
73240;BME280;61452;40.054;4.110;2024-03-22T15:03:47;101966.59;;;17.14;100.00
73240;BME280;61452;40.054;4.110;2024-03-22T15:08:48;101960.34;;;17.15;100.00
73240;BME280;61452;40.054;4.110;2024-03-22T15:13:49;101958.63;;;17.14;100.00
73240;BME280;61452;40.054;4.110;2024-03-22T15:18:51;101956.84;;;17.15;100.00
73240;BME280;61452;40.054;4.110;2024-03-22T15:23:52;101956.84;;;17.15;100.00
73240;BME280;61452;40.054;4.110;2024-03-22T15:28:53;101955.28;;;17.11;100.00
73240;BME280;61452;40.054;4.110;2024-03-22T15:33:54;101949.06;;;17.12;100.00
73240;BME280;61452;40.054;4.110;2024-03-22T15:38:55;101950.84;;;17.11;100.00
73240;BME280;61452;40.054;4.110;2024-03-22T15:43:56;101947.25;;;17.12;100.00
73240;BME280;61452;40.054;4.110;2024-03-22T15:48:57;101937.50;;;17.13;100.00
73240;BME280;61452;40.054;4.110;2024-03-22T15:53:58;101954.28;;;17.13;100.00
73240;BME280;61452;40.054;4.110;2024-03-22T15:58:59;101945.47;;;17.13;100.00
73240;BME280;61452;40.054;4.110;2024-03-22T16:04:00;101942.88;;;17.11;100.00
73240;BME280;61452;40.054;4.110;2024-03-22T16:09:01;101941.09;;;17.12;100.00
73240;BME280;61452;40.054;4.110;2024-03-22T16:14:03;101948.03;;;17.14;100.00
73240;BME280;61452;40.054;4.110;2024-03-22T16:19:04;101943.66;;;17.13;100.00
73240;BME280;61452;40.054;4.110;2024-03-22T16:24:06;101937.44;;;17.14;100.00
73240;BME280;61452;40.054;4.110;2024-03-22T16:29:07;101946.31;;;17.13;100.00
73240;BME280;61452;40.054;4.110;2024-03-22T16:34:08;101941.09;;;17.12;100.00
73240;BME280;61452;40.054;4.110;2024-03-22T16:39:10;101945.47;;;17.13;100.00
73240;BME280;61452;40.054;4.110;2024-03-22T16:44:11;101943.75;;;17.12;100.00
73240;BME280;61452;40.054;4.110;2024-03-22T16:49:12;101930.41;;;17.13;100.00
73240;BME280;61452;40.054;4.110;2024-03-22T16:54:13;101920.75;;;17.12;100.00
73240;BME280;61452;40.054;4.110;2024-03-22T16:59:14;101921.41;;;17.16;100.00
73240;BME280;61452;40.054;4.110;2024-03-22T17:04:17;101927.56;;;17.16;100.00
73240;BME280;61452;40.054;4.110;2024-03-22T17:09:18;101922.38;;;17.15;100.00
73240;BME280;61452;40.054;4.110;2024-03-22T17:14:19;101919.81;;;17.13;100.00
73240;BME280;61452;40.054;4.110;2024-03-22T17:19:21;101926.91;;;17.13;100.00
73240;BME280;61452;40.054;4.110;2024-03-22T17:24:22;101919.63;;;17.16;100.00
73240;BME280;61452;40.054;4.110;2024-03-22T17:29:24;101917.81;;;17.17;100.00
73240;BME280;61452;40.054;4.110;2024-03-22T17:34:26;101918.69;;;17.17;100.00
73240;BME280;61452;40.054;4.110;2024-03-22T17:39:27;101921.41;;;17.16;100.00
73240;BME280;61452;40.054;4.110;2024-03-22T17:44:28;101917.06;;;17.15;100.00
73240;BME280;61452;40.054;4.110;2024-03-22T17:49:29;101917.06;;;17.15;100.00
73240;BME280;61452;40.054;4.110;2024-03-22T17:54:30;101913.56;;;17.14;100.00
73240;BME280;61452;40.054;4.110;2024-03-22T17:59:31;101921.41;;;17.16;100.00
73240;BME280;61452;40.054;4.110;2024-03-22T18:04:33;101923.03;;;17.18;100.00
73240;BME280;61452;40.054;4.110;2024-03-22T18:09:34;101924.75;;;17.19;100.00
73240;BME280;61452;40.054;4.110;2024-03-22T18:14:35;101931.00;;;17.18;100.00
73240;BME280;61452;40.054;4.110;2024-03-22T18:19:36;101931.06;;;17.17;100.00
73240;BME280;61452;40.054;4.110;2024-03-22T18:24:37;101933.84;;;17.15;100.00
73240;BME280;61452;40.054;4.110;2024-03-22T18:29:38;101935.53;;;17.16;100.00
73240;BME280;61452;40.054;4.110;2024-03-22T18:34:39;101938.09;;;17.18;100.00
73240;BME280;61452;40.054;4.110;2024-03-22T18:39:40;101940.81;;;17.16;100.00
73240;BME280;61452;40.054;4.110;2024-03-22T18:44:42;101939.72;;;17.20;100.00
73240;BME280;61452;40.054;4.110;2024-03-22T18:49:43;101934.50;;;17.19;100.00
73240;BME280;61452;40.054;4.110;2024-03-22T18:54:52;101928.34;;;17.18;100.00
73240;BME280;61452;40.054;4.110;2024-03-22T18:59:55;101936.38;;;17.17;100.00
73240;BME280;61452;40.054;4.110;2024-03-22T19:04:56;101954.94;;;17.17;100.00
73240;BME280;61452;40.054;4.110;2024-03-22T19:09:57;101950.56;;;17.16;100.00
73240;BME280;61452;40.054;4.110;2024-03-22T19:14:58;101954.94;;;17.17;100.00
73240;BME280;61452;40.054;4.110;2024-03-22T19:19:59;101960.94;;;17.20;100.00
73240;BME280;61452;40.054;4.110;2024-03-22T19:25:00;101967.19;;;17.19;100.00
73240;BME280;61452;40.054;4.110;2024-03-22T19:30:01;101976.06;;;17.18;100.00
73240;BME280;61452;40.054;4.110;2024-03-22T19:35:03;101978.72;;;17.18;100.00
73240;BME280;61452;40.054;4.110;2024-03-22T19:40:05;101993.84;;;17.16;100.00
73240;BME280;61452;40.054;4.110;2024-03-22T19:45:07;101986.75;;;17.17;100.00
73240;BME280;61452;40.054;4.110;2024-03-22T19:50:08;101987.53;;;17.19;100.00
73240;BME280;61452;40.054;4.110;2024-03-22T19:55:10;101986.66;;;17.18;100.00
73240;BME280;61452;40.054;4.110;2024-03-22T20:00:11;101980.50;;;17.18;100.00
73240;BME280;61452;40.054;4.110;2024-03-22T20:05:12;101983.16;;;17.18;100.00
73240;BME280;61452;40.054;4.110;2024-03-22T20:10:13;101971.78;;;17.16;100.00
73240;BME280;61452;40.054;4.110;2024-03-22T20:15:15;101978.06;;;17.15;100.00
73240;BME280;61452;40.054;4.110;2024-03-22T20:20:16;101980.59;;;17.16;100.00
73240;BME280;61452;40.054;4.110;2024-03-22T20:25:17;101977.94;;;17.16;100.00
73240;BME280;61452;40.054;4.110;2024-03-22T20:30:19;101982.22;;;17.19;100.00
73240;BME280;61452;40.054;4.110;2024-03-22T20:35:20;101983.16;;;17.18;100.00
